Villas del Carmen, Puerto Rico
Current Conditions -  °F | °C
As of 4:56 AM on Saturday 25 Oct 2014 (Local Time) from TJSJ Reporting Station
Few Clouds Few Clouds  
Wind Chill: 80°   Ceiling: Unl
Heat Index: 85°   Visibility: 10mi
Dew Point: 74°   Wind: 0mph
Humidity: 81%   Direction: NA
Pressure: 29.89"   Gusts: NA
Location:  18.2551°N, 65.9776°W
Report Text: TJSJ 250856Z 00000KT 10SM FEW050 27/23 A2989 RMK AO2 SLP119 T02670233 55003
Loading
Personal Weather Stations






























Interactive Weather Map
Tropical Storm Tracking
New forecast layout! Learn more

10-Day Weather Forecast

Advertisements
Track Severe Weather on mobile